• Join FlightAware (Why Join?)
  • Login
  • US Flag 
04:51AM EST


 

Airport Tracker/Info


-or-


 

Live Flight TrackerFlight Track Log ✈ SWA2867 ✈ 10-May-2013 ✈ KSFO - KSAN

Flight Track Log - Related Links

Times and Time Zones

All times are in EDT time to prevent confusion due to time zone crossing. See the SWA2867 flight status page for this flight to view local times or setup timezone preferences in your user account.

Time Position Orientation Groundspeed Altitude Reporting Facility
EDT Latitude Longitude Course Direction KTS MPH feet Rate Location/Type
11:10AM 37.6964 -122.3683 354° North 205 236 4,100  Level Oakland Center
11:11AM 37.6869 -122.4478 261° West 270 311 7,200 3,049 Climbing Oakland Center
11:12AM 37.6097 -122.4650 190° South 280 322 10,300 2,488 Climbing Oakland Center
11:13AM 37.5222 -122.4800 188° South 318 366 12,300 2,293 Climbing Oakland Center
11:14AM 37.4269 -122.4953 187° South 341 392 15,000 2,410 Climbing Oakland Center
11:15AM 37.3269 -122.5111 187° South 360 414 17,200 2,066 Climbing Oakland Center
11:17AM 37.2200 -122.5297 188° South 382 440 19,200 2,164 Climbing Oakland Center
11:18AM 37.1211 -122.4894 162° South 386 444 21,600 2,016 Climbing Oakland Center
11:19AM 37.0328 -122.4114 145° Southeast 391 450 23,300 1,610 Climbing Oakland Center
11:20AM 36.9397 -122.3297 145° Southeast 406 467 24,900 1,659 Climbing Oakland Center
11:21AM 36.8228 -122.2292 145° Southeast 423 487 26,700 1,475 Climbing Oakland Center
11:22AM 36.7231 -122.1425 145° Southeast 436 502 27,900 1,230 Climbing Oakland Center
11:23AM 36.6200 -122.0528 145° Southeast 451 519 29,200 1,279 Climbing Oakland Center
11:24AM 36.5150 -121.9617 145° Southeast 458 527 30,500 1,268 Climbing Oakland Center
11:25AM 36.4072 -121.8700 146° Southeast 470 541 31,800 1,366 Climbing Oakland Center
11:26AM 36.3075 -121.7878 146° Southeast 468 539 33,300 1,230 Climbing Oakland Center
11:27AM 36.1772 -121.6733 145° Southeast 480 552 34,300 1,082 Climbing Oakland Center
11:28AM 36.0633 -121.5789 146° Southeast 492 566 35,500 1,220 Climbing Oakland Center
11:29AM 35.9514 -121.4844 146° Southeast 490 564 36,800 732 Climbing Oakland Center
11:30AM 35.8406 -121.3892 145° Southeast 488 562 37,000 98 Climbing Oakland Center
11:31AM 35.7286 -121.2961 146° Southeast 488 562 37,000  Level Oakland Center
11:32AM 35.6192 -121.2025 145° Southeast 483 556 37,000  Level Oakland Center
11:33AM 35.5092 -121.1092 145° Southeast 482 555 37,000  Level Oakland Center
11:34AM 35.4294 -120.9853 128° Southeast 466 536 37,000  Level Oakland Center
11:35AM 35.3431 -120.8317 125° Southeast 460 529 37,000  Level Oakland Center
11:36AM 35.2697 -120.7056 125° Southeast 461 531 37,000  Level Oakland Center
11:37AM 35.1986 -120.5794 125° Southeast 457 526 37,000  Level Oakland Center
11:38AM 35.1083 -120.4214 125° Southeast 456 525 37,000  Level Los Angeles Center
11:39AM 35.0356 -120.2942 125° Southeast 454 522 37,000  Level Los Angeles Center
11:40AM 34.9631 -120.1669 125° Southeast 454 522 37,000  Level Los Angeles Center
11:41AM 34.8822 -120.0272 125° Southeast 459 528 37,000  Level Los Angeles Center
11:42AM 34.8086 -119.9011 125° Southeast 459 528 37,000  Level Los Angeles Center
11:43AM 34.7364 -119.7753 125° Southeast 456 525 37,000  Level Los Angeles Center
11:44AM 34.6639 -119.6525 126° Southeast 450 518 37,000  Level Los Angeles Center
11:45AM 34.5867 -119.5231 126° Southeast 445 512 37,000  Level Los Angeles Center
11:46AM 34.5150 -119.4025 126° Southeast 442 509 37,000  Level Los Angeles Center
11:47AM 34.4422 -119.2808 126° Southeast 446 513 37,000  Level Los Angeles Center
11:48AM 34.3686 -119.1572 126° Southeast 451 519 37,000  Level Los Angeles Center
11:49AM 34.2797 -119.0094 126° Southeast 454 522 37,000  Level Los Angeles Center
11:51AM 34.2069 -118.8853 125° Southeast 453 521 37,000  Level Los Angeles Center
11:52AM 34.1325 -118.7631 126° Southeast 452 520 37,000  Level Los Angeles Center
11:53AM 34.0589 -118.6414 126° Southeast 449 517 37,000  Level Los Angeles Center
11:54AM 33.9850 -118.5178 126° Southeast 453 521 37,000  Level Los Angeles Center
11:55AM 33.9081 -118.3981 128° Southeast 450 518 37,000 -1,403 Level Los Angeles Center
11:56AM 33.8078 -118.2758 135° Southeast 454 522 34,100 -2,516 Descending Los Angeles Center
11:57AM 33.7289 -118.1711 132° Southeast 453 521 31,800 -2,903 Descending Los Angeles Center
11:58AM 33.6261 -118.0397 133° Southeast 448 516 28,100 -2,903 Descending Los Angeles Center
11:59AM 33.5431 -117.9342 133° Southeast 437 503 25,800 -2,226 Descending Los Angeles Center
12:00PM 33.4633 -117.8344 134° Southeast 422 486 23,500 -2,129 Descending Los Angeles Center
12:01PM 33.3858 -117.7378 134° Southeast 405 466 21,400 -1,839 Descending Los Angeles Center
12:02PM 33.3264 -117.6628 133° Southeast 392 451 19,700 -2,198 Descending Los Angeles Center
12:03PM 33.2500 -117.5667 134° Southeast 388 447 17,700 -2,545 Descending Southern California TRACON
12:04PM 33.1667 -117.5000 146° Southeast 395 455 15,500 -1,905 Descending Southern California TRACON
12:05PM 33.0667 -117.4167 145° Southeast 356 410 13,700 -1,620 Descending Southern California TRACON
12:05PM 33.0342 -117.3875 143° Southeast 357 411 12,800 -1,900 Descending Los Angeles Center
12:06PM 33.0000 -117.3500 137° Southeast 341 392 11,800 -1,650 Descending Southern California TRACON
12:07PM 32.9167 -117.3000 153° Southeast 323 372 10,600 -1,252 Descending Southern California TRACON
12:08PM 32.8667 -117.2333 132° Southeast 293 337 9,400 -1,245 Descending Southern California TRACON
12:08PM 32.8306 -117.1983 141° Southeast 291 335 8,400 -1,611 Descending Los Angeles Center
12:09PM 32.7906 -117.1169 120° Southeast 285 328 6,500 -1,632 Descending Los Angeles Center
12:10PM 32.7600 -117.0183 110° East 269 310 5,000 -1,113 Descending Los Angeles Center
12:11PM 32.6964 -117.0361 193° South 240 276 4,200 -1,013 Descending Los Angeles Center
12:12PM 32.7000 -117.0500 287° West 232 267 3,700 -1,760 Descending Southern California TRACON
12:13PM 32.7167 -117.1167 287° West 173 199 2,000 -1,596 Descending Southern California TRACON
12:14PM 32.7239 -117.1461 286° West 173 199 800 -919 Descending Los Angeles Center
12:15PM 32.7397 -117.2061 287° West 170 196 300 -484 Descending Los Angeles Center
12:17PM 32.7333 -117.1833 90° East  Level FlightAware Approximate